• Join FlightAware (Why Join?)
  • Login
  • US Flag 
03:06PM EDT


 

Airport Tracker/Info


-or-


 

Live Flight TrackerFlight Track Log ✈ SKW4496 ✈ 09-May-2013 ✈ KSLC - CYYC

Flight Track Log - Related Links

Times and Time Zones

All times are in EDT time to prevent confusion due to time zone crossing. See the SKW4496 flight status page for this flight to view local times or setup timezone preferences in your user account.

Time Position Orientation Groundspeed Altitude Reporting Facility
EDT Latitude Longitude Course Direction KTS MPH feet Rate Location/Type
10:24PM 40.8033 -111.9633 21° North 157 181 5,100  Level Salt Lake Center
10:25PM 40.8167 -111.9647 355° North 166 191 5,600 1,800 Climbing Salt Lake Center
10:26PM 40.8722 -111.9739 353° North 204 235 7,500 1,980 Climbing Salt Lake Center
10:27PM 41.0979 -111.9708 56° Northeast  Level FlightAware Approximate
10:27PM 40.9406 -111.9819 355° North 252 290 9,600  Level Salt Lake Center
10:28PM 41.1737 -111.8662 43° Northeast  Level FlightAware Approximate
10:28PM 41.0289 -111.9986 352° North 298 343 11,800  Level Salt Lake Center
10:29PM 41.2569 -111.7882 21° North  Level FlightAware Approximate
10:29PM 41.1053 -111.9369 31° Northeast 316 364 14,700  Level Salt Lake Center
10:30PM 41.1794 -111.8650 36° Northeast 325 374 17,200 1,980 Climbing Salt Lake Center
10:31PM 41.2614 -111.7994 31° Northeast 340 391 18,900 1,740 Climbing Salt Lake Center
10:32PM 41.3606 -111.7861 North 362 417 20,900 1,980 Climbing Salt Lake Center
10:33PM 41.4636 -111.7950 356° North 370 426 23,100 2,520 Climbing Salt Lake Center
10:34PM 41.5828 -111.8058 356° North 358 412 26,100 2,040 Climbing Salt Lake Center
10:35PM 41.6811 -111.8156 356° North 359 413 27,400 1,140 Climbing Salt Lake Center
10:36PM 41.7850 -111.8247 356° North 374 430 28,500 960 Climbing Salt Lake Center
10:37PM 41.8908 -111.8344 356° North 379 436 29,500 960 Climbing Salt Lake Center
10:38PM 42.0044 -111.8456 356° North 404 465 30,500 1,020 Climbing Salt Lake Center
10:39PM 42.1192 -111.8561 356° North 413 475 31,700 1,380 Climbing Salt Lake Center
10:40PM 42.2539 -111.8686 356° North 406 467 33,400 1,080 Climbing Salt Lake Center
10:41PM 42.3658 -111.8806 355° North 404 465 34,000 240 Climbing Salt Lake Center
10:42PM 42.4825 -111.8906 356° North 418 481 34,000  Level Salt Lake Center
10:43PM 42.5981 -111.9025 356° North 419 482 34,000  Level Salt Lake Center
10:44PM 42.7136 -111.9136 356° North 416 479 34,000  Level Salt Lake Center
10:45PM 42.8456 -111.9261 356° North 426 490 34,000  Level Salt Lake Center
10:46PM 42.9597 -111.9364 356° North 430 495 34,000  Level Salt Lake Center
10:47PM 43.0908 -111.9492 356° North 421 484 34,000  Level Salt Lake Center
10:48PM 43.2014 -111.9625 355° North 418 481 34,000  Level Salt Lake Center
10:49PM 43.3283 -111.9728 357° North 412 474 34,000  Level Salt Lake Center
10:50PM 43.4358 -111.9839 356° North 406 467 34,000  Level Salt Lake Center
10:51PM 43.5617 -111.9958 356° North 405 466 34,000  Level Salt Lake Center
10:52PM 43.6686 -112.0064 356° North 404 465 34,000  Level Salt Lake Center
10:53PM 43.7772 -112.0181 356° North 408 470 34,000  Level Salt Lake Center
10:54PM 43.9044 -112.0311 356° North 408 470 34,000  Level Salt Lake Center
10:56PM 44.0158 -112.0428 356° North 417 480 34,000  Level Salt Lake Center
10:57PM 44.1456 -112.0558 356° North 418 481 34,000  Level Salt Lake Center
10:58PM 44.2556 -112.0656 356° North 415 478 34,000  Level Salt Lake Center
10:59PM 44.3864 -112.0783 356° North 420 483 34,000  Level Salt Lake Center
11:00PM 44.4978 -112.0906 356° North 418 481 34,000  Level Salt Lake Center
11:01PM 44.6264 -112.1036 356° North 413 475 34,000  Level Salt Lake Center
11:02PM 44.7375 -112.1153 356° North 415 478 34,000  Level Salt Lake Center
11:03PM 44.8464 -112.1258 356° North 411 473 34,000  Level Salt Lake Center
11:04PM 44.9731 -112.1403 355° North 407 468 34,000  Level Salt Lake Center
11:05PM 45.0822 -112.1514 356° North 409 471 34,000  Level Salt Lake Center
11:06PM 45.2089 -112.1644 356° North 408 470 34,000  Level Salt Lake Center
11:07PM 45.3178 -112.1764 356° North 409 471 34,000  Level Salt Lake Center
11:08PM 45.4300 -112.1878 356° North 407 468 34,000  Level Salt Lake Center
11:09PM 45.5456 -112.2000 356° North 411 473 34,000  Level Salt Lake Center
11:10PM 45.6600 -112.2133 355° North 412 474 34,000  Level Salt Lake Center
11:11PM 45.7750 -112.2253 356° North 412 474 34,000  Level Salt Lake Center
11:12PM 45.8919 -112.2372 356° North 417 480 34,000  Level Salt Lake Center
11:13PM 46.0314 -112.2517 356° North 417 480 34,000  Level Salt Lake Center
11:14PM 46.1461 -112.2658 355° North 414 476 34,000  Level Salt Lake Center
11:15PM 46.2608 -112.2783 356° North 412 474 34,000  Level Salt Lake Center
11:16PM 46.3769 -112.2919 355° North 416 479 34,000  Level Salt Lake Center
11:17PM 46.4897 -112.3008 357° North 422 486 34,000  Level Salt Lake Center
11:18PM 46.6044 -112.3139 356° North 418 481 34,000  Level Salt Lake Center
11:19PM 46.7197 -112.3264 356° North 416 479 34,000  Level Salt Lake Center
11:20PM 46.8583 -112.3419 356° North 417 480 34,000  Level Salt Lake Center
11:21PM 46.9744 -112.3556 355° North 417 480 34,000  Level Salt Lake Center
11:22PM 47.0919 -112.3683 356° North 422 486 34,000  Level Salt Lake Center
11:23PM 47.2075 -112.3825 355° North 418 481 34,000  Level Salt Lake Center
11:24PM 47.3228 -112.3944 356° North 415 478 34,000  Level Salt Lake Center
11:25PM 47.4386 -112.4064 356° North 415 478 34,000  Level Salt Lake Center
11:26PM 47.5536 -112.4211 355° North 415 478 34,000  Level Salt Lake Center
11:27PM 47.6697 -112.4347 355° North 416 479 34,000  Level Salt Lake Center
11:28PM 47.7844 -112.4494 355° North 415 478 34,000  Level Salt Lake Center
11:29PM 47.9014 -112.4617 356° North 418 481 34,000  Level Salt Lake Center
11:30PM 48.0392 -112.4772 356° North 416 479 34,000  Level Salt Lake Center
11:31PM 48.1550 -112.4903 356° North 416 479 34,000  Level Salt Lake Center
11:32PM 48.2683 -112.5044 355° North 413 475 34,000  Level Salt Lake Center
11:34PM 48.3833 -112.5161 356° North 413 475 34,000  Level Salt Lake Center
11:35PM 48.4981 -112.5308 355° North 413 475 34,000  Level Salt Lake Center
11:36PM 48.6114 -112.5444 355° North 411 473 34,000  Level Salt Lake Center
11:37PM 48.7247 -112.5583 355° North 410 472 34,000  Level Salt Lake Center
11:38PM 48.8378 -112.5717 356° North 409 471 34,000  Level Salt Lake Center
11:39PM 48.9506 -112.5847 356° North 407 468 34,000  Level Salt Lake Center
11:40PM 49.0500 -112.6167 348° North 400 460 34,000  Level Edmonton Center
11:41PM 49.1500 -112.6333 354° North 400 460 34,000  Level Edmonton Center
11:42PM 49.2667 -112.6333 360° North 400 460 34,000  Level Edmonton Center
11:43PM 49.3667 -112.6500 354° North 400 460 34,000  Level Edmonton Center
11:44PM 49.4833 -112.6667 355° North 400 460 34,000  Level Edmonton Center
11:45PM 49.6000 -112.6833 355° North 400 460 34,000  Level Edmonton Center
11:46PM 49.7000 -112.7667 332° Northwest 400 460 34,000  Level Edmonton Center
11:47PM 49.7833 -112.8333 333° Northwest 400 460 34,000 -960 Level Edmonton Center
11:48PM 49.8833 -112.9167 332° Northwest 400 460 32,100 -2,520 Descending Edmonton Center
11:49PM 50.0000 -113.0000 335° Northwest 410 472 29,000 -3,000 Descending Edmonton Center
11:50PM 50.1000 -113.0667 337° Northwest 390 449 26,100 -2,940 Descending Edmonton Center
11:51PM 50.1833 -113.1667 322° Northwest 390 449 23,200 -3,000 Descending Edmonton Center
11:52PM 50.2833 -113.2333 337° Northwest 380 437 20,100 -2,880 Descending Edmonton Center
11:54PM 50.4667 -113.3667 335° Northwest 360 414 14,600 -2,340 Descending Edmonton Center
11:55PM 50.5333 -113.4333 328° Northwest 330 380 13,200 -1,440 Descending Edmonton Center
11:56PM 50.6167 -113.5167 328° Northwest 280 322 11,800 -1,380 Descending Edmonton Center
11:57PM 50.6833 -113.5500 342° North 270 311 10,500 -1,200 Descending Edmonton Center
11:58PM 50.7500 -113.6167 328° Northwest 270 311 9,500 -1,080 Descending Edmonton Center
11:59PM 50.8167 -113.6833 328° Northwest 260 299 8,400 -780 Descending Edmonton Center
12:00AM 50.8167 -113.7833 270° West 280 322 8,000 -660 Descending Edmonton Center
12:01AM 50.8167 -113.9333 270° West 270 311 7,100 -780 Descending Edmonton Center
12:02AM 50.8500 -114.0167 302° West 250 288 6,500 -360 Descending Edmonton Center
12:03AM 50.9000 -114.0500 337° Northwest 180 207 6,400 -120 Descending Edmonton Center